Terminal Aerodrome Forecast
Issued by NWS

Home | Current Version | Previous Version | Graphics & Text | Print | Product List | Glossary On
Versions: 1 2 3 4 5 6 7 8 9 10 11 12 13 14 15 16 17 18 19 20 21 22 23
789
FTUS43 KABR 201720
TAFPIR
TAF
KPIR 201720Z 2018/2118 09008KT P6SM SCT110
     FM210100 05009KT P6SM OVC100
     FM210600 04010KT P6SM -RA OVC045
     FM210800 04010KT 6SM -RASN OVC035
     FM210900 04010KT 4SM -SN OVC035
     FM211200 05010KT P6SM OVC025=

USA.gov is the U.S. government's official web portal to all federal, state and local government web resources and services.